createdAt,value
2018-05-23T00:01:19.743Z,9.80
2018-05-23T00:03:48.083Z,9.60
2018-05-23T00:06:16.317Z,10.63
2018-05-23T00:08:44.604Z,10.90
2018-05-23T00:11:12.857Z,10.07
2018-05-23T00:13:41.178Z,10.80
2018-05-23T00:16:10.247Z,9.50
2018-05-23T00:18:38.552Z,9.40
2018-05-23T00:21:06.808Z,9.97
2018-05-23T00:23:35.079Z,9.00
2018-05-23T00:26:04.235Z,9.87
2018-05-23T00:28:32.539Z,9.50
2018-05-23T00:31:00.804Z,11.03
2018-05-23T00:33:29.168Z,9.60
2018-05-23T00:35:57.451Z,9.10
2018-05-23T00:38:25.720Z,9.50
2018-05-23T00:40:54.015Z,8.53
2018-05-23T00:43:22.394Z,9.47
2018-05-23T00:45:50.637Z,9.63
2018-05-23T00:48:19.679Z,9.20
2018-05-23T00:50:47.924Z,10.60
2018-05-23T00:53:16.206Z,11.10
2018-05-23T00:55:44.456Z,11.00
2018-05-23T00:58:12.834Z,11.57
2018-05-23T01:00:41.094Z,11.60
2018-05-23T01:03:09.367Z,9.57
2018-05-23T01:05:37.653Z,10.67
2018-05-23T01:08:05.901Z,10.27
2018-05-23T01:10:34.168Z,11.77
2018-05-23T01:13:03.200Z,10.87
2018-05-23T01:15:31.460Z,10.23
2018-05-23T01:17:59.775Z,10.20
2018-05-23T01:20:28.041Z,10.30
2018-05-23T01:22:56.293Z,10.90
2018-05-23T01:25:25.450Z,9.50
2018-05-23T01:27:53.704Z,11.00
2018-05-23T01:30:22.045Z,10.67
2018-05-23T01:32:50.274Z,10.90
2018-05-23T01:35:18.660Z,10.77
2018-05-23T01:37:46.907Z,9.97
2018-05-23T01:40:15.195Z,10.87
2018-05-23T01:42:43.442Z,9.50
2018-05-23T01:45:11.791Z,10.27
2018-05-23T01:47:40.068Z,10.23
2018-05-23T01:50:08.336Z,10.43
2018-05-23T01:52:36.622Z,9.03
2018-05-23T01:55:04.904Z,10.00
2018-05-23T01:57:33.150Z,10.70
2018-05-23T02:00:01.425Z,10.60
2018-05-23T02:02:30.433Z,9.60
2018-05-23T02:04:58.747Z,10.53
2018-05-23T02:07:27.062Z,10.07
2018-05-23T02:09:55.309Z,10.20
2018-05-23T02:12:23.591Z,10.63
2018-05-23T02:14:51.870Z,10.90
2018-05-23T02:17:20.118Z,10.10
2018-05-23T02:19:49.225Z,10.80
2018-05-23T02:22:17.466Z,10.63
2018-05-23T02:24:45.816Z,10.23
2018-05-23T02:27:14.079Z,9.50
2018-05-23T02:29:42.410Z,10.73
2018-05-23T02:32:10.667Z,10.20
2018-05-23T02:34:38.929Z,9.47
2018-05-23T02:37:07.216Z,9.60
2018-05-23T02:39:35.484Z,9.50
2018-05-23T02:42:03.773Z,10.33
2018-05-23T02:44:32.049Z,10.33
2018-05-23T02:47:00.376Z,9.37
2018-05-23T02:49:28.619Z,9.97
2018-05-23T02:51:56.979Z,10.10
2018-05-23T02:54:25.245Z,10.10
2018-05-23T02:56:54.267Z,9.27
2018-05-23T02:59:22.546Z,10.33
2018-05-23T03:01:50.782Z,9.20
2018-05-23T03:04:19.057Z,10.00
2018-05-23T03:06:49.319Z,9.30
2018-05-23T03:09:18.286Z,10.63
2018-05-23T03:11:46.534Z,10.47
2018-05-23T03:14:14.805Z,12.27
2018-05-23T03:16:43.056Z,10.97
2018-05-23T03:19:11.362Z,10.43
2018-05-23T03:21:39.654Z,10.27
2018-05-23T03:24:07.937Z,10.70
2018-05-23T03:26:36.211Z,11.53
2018-05-23T03:29:04.491Z,11.77
2018-05-23T03:31:32.748Z,10.27
2018-05-23T03:34:01.062Z,10.33
2018-05-23T03:36:29.343Z,9.97
2018-05-23T03:38:57.605Z,10.03
2018-05-23T03:41:25.897Z,10.10
2018-05-23T03:43:54.286Z,10.57
2018-05-23T03:46:22.540Z,9.37
2018-05-23T03:48:50.789Z,10.23
2018-05-23T03:51:19.262Z,10.47
2018-05-23T03:53:47.508Z,9.90
2018-05-23T03:56:15.801Z,10.20
2018-05-23T03:58:44.104Z,10.20
2018-05-23T04:01:24.324Z,11.40
2018-05-23T04:04:04.639Z,10.20
2018-05-23T04:06:45.580Z,9.20
2018-05-23T04:09:13.880Z,10.10
2018-05-23T04:11:42.121Z,11.40
2018-05-23T04:14:10.389Z,11.50
2018-05-23T04:16:38.668Z,11.00
2018-05-23T04:19:06.917Z,10.50
2018-05-23T04:21:35.966Z,10.77
2018-05-23T04:24:04.340Z,11.37
2018-05-23T04:26:32.520Z,11.43
2018-05-23T04:29:00.806Z,10.47
2018-05-23T04:31:29.086Z,10.10
2018-05-23T04:33:57.409Z,10.30
2018-05-23T04:36:25.643Z,11.43
2018-05-23T04:38:53.954Z,10.87
2018-05-23T04:41:22.212Z,12.07
2018-05-23T04:43:50.498Z,11.30
2018-05-23T04:46:18.769Z,11.37
2018-05-23T04:48:47.143Z,10.90
2018-05-23T04:51:15.337Z,11.03
2018-05-23T04:53:43.617Z,11.20
2018-05-23T04:56:11.946Z,10.33
2018-05-23T04:58:40.485Z,11.90
2018-05-23T05:01:08.755Z,11.00
2018-05-23T05:03:37.006Z,10.67
2018-05-23T05:06:05.402Z,10.47
2018-05-23T05:08:33.711Z,10.80
2018-05-23T05:11:01.994Z,11.23
2018-05-23T05:13:30.313Z,10.80
2018-05-23T05:15:58.597Z,11.20
2018-05-23T05:18:26.839Z,10.83
2018-05-23T05:20:55.129Z,10.80
2018-05-23T05:23:23.375Z,10.80
2018-05-23T05:25:51.660Z,11.27
2018-05-23T05:28:19.917Z,10.97
2018-05-23T05:30:49.054Z,9.33
2018-05-23T05:33:17.310Z,9.43
2018-05-23T05:35:45.600Z,9.80
2018-05-23T05:38:13.903Z,12.10
2018-05-23T05:40:42.200Z,11.23
2018-05-23T05:43:10.468Z,11.60
2018-05-23T05:45:38.740Z,12.33
2018-05-23T05:48:06.988Z,11.60
2018-05-23T05:50:36.033Z,12.03
2018-05-23T05:53:04.283Z,11.60
2018-05-23T05:55:32.562Z,11.93
2018-05-23T05:58:00.827Z,12.20
2018-05-23T06:00:29.902Z,11.90
2018-05-23T06:02:58.153Z,11.97
2018-05-23T06:05:26.521Z,12.93
2018-05-23T06:07:54.804Z,12.43
2018-05-23T06:10:23.107Z,12.27
2018-05-23T06:12:51.406Z,12.83
2018-05-23T06:15:20.096Z,12.20
2018-05-23T06:17:48.609Z,11.87
2018-05-23T06:20:17.269Z,11.50
2018-05-23T06:22:45.697Z,11.43
2018-05-23T06:25:14.345Z,13.30
2018-05-23T06:27:43.758Z,13.37
2018-05-23T06:30:12.844Z,13.07
2018-05-23T06:32:41.108Z,11.83
2018-05-23T06:35:09.377Z,13.30
2018-05-23T06:37:37.629Z,12.60
2018-05-23T06:40:06.046Z,13.80
2018-05-23T06:42:34.233Z,12.40
2018-05-23T06:45:02.496Z,13.03
2018-05-23T06:47:31.400Z,14.10
2018-05-23T06:49:59.678Z,12.60
2018-05-23T06:52:28.001Z,12.33
2018-05-23T06:54:56.245Z,12.77
2018-05-23T06:57:24.498Z,12.70
2018-05-23T06:59:52.761Z,11.73
2018-05-23T07:02:21.919Z,11.83
2018-05-23T07:04:50.178Z,11.63
2018-05-23T07:07:18.471Z,12.27
2018-05-23T07:09:46.726Z,12.10
2018-05-23T07:12:15.056Z,12.73
2018-05-23T07:14:43.311Z,11.63
2018-05-23T07:17:11.598Z,11.63
2018-05-23T07:19:39.969Z,11.90
2018-05-23T07:22:08.279Z,13.13
2018-05-23T07:24:36.652Z,12.30
2018-05-23T07:27:05.160Z,12.40
2018-05-23T07:29:34.377Z,13.37
2018-05-23T07:32:02.742Z,13.40
2018-05-23T07:34:31.780Z,12.10
2018-05-23T07:37:00.135Z,12.47
2018-05-23T07:39:30.152Z,12.10
2018-05-23T07:41:59.663Z,13.30
2018-05-23T07:44:28.248Z,13.90
2018-05-23T07:46:56.564Z,14.00
2018-05-23T07:49:26.556Z,13.40
2018-05-23T07:51:55.619Z,13.27
2018-05-23T07:54:23.904Z,13.27
2018-05-23T07:56:52.180Z,13.93
2018-05-23T07:59:20.482Z,12.70
2018-05-23T08:01:48.784Z,13.80
2018-05-23T08:04:17.973Z,14.10
2018-05-23T08:06:46.260Z,14.97
2018-05-23T08:09:14.616Z,13.90
2018-05-23T08:11:43.437Z,15.87
2018-05-23T08:14:11.721Z,13.90
2018-05-23T08:16:40.065Z,13.30
2018-05-23T08:19:08.365Z,14.77
2018-05-23T08:21:36.621Z,14.47
2018-05-23T08:24:04.877Z,12.93
2018-05-23T08:26:33.945Z,12.63
2018-05-23T08:29:02.301Z,13.17
2018-05-23T08:31:30.579Z,13.63
2018-05-23T08:33:58.859Z,12.60
2018-05-23T08:36:27.307Z,11.47
2018-05-23T08:38:55.492Z,12.20
2018-05-23T08:41:23.803Z,12.47
2018-05-23T08:43:52.062Z,11.87
2018-05-23T08:46:20.392Z,12.13
2018-05-23T08:48:49.534Z,11.87
2018-05-23T08:51:17.963Z,11.13
2018-05-23T08:53:46.365Z,11.20
2018-05-23T08:56:15.433Z,10.40
2018-05-23T08:58:43.689Z,12.27
2018-05-23T09:01:11.995Z,12.43
2018-05-23T09:03:40.278Z,11.57
2018-05-23T09:06:08.550Z,10.63
2018-05-23T09:08:36.788Z,9.40
2018-05-23T09:11:05.935Z,10.73
2018-05-23T09:13:34.214Z,11.73
2018-05-23T09:16:02.570Z,9.47
2018-05-23T09:18:31.940Z,10.20
2018-05-23T09:21:00.356Z,9.20
2018-05-23T09:23:29.726Z,9.50
2018-05-23T09:25:58.091Z,9.13
2018-05-23T09:28:26.489Z,9.30
2018-05-23T09:30:54.875Z,9.37
2018-05-23T09:33:23.317Z,9.07
2018-05-23T09:35:51.741Z,8.80
2018-05-23T09:38:21.537Z,9.20
2018-05-23T09:40:49.813Z,8.00
2018-05-23T09:43:18.218Z,9.27
2018-05-23T09:45:48.105Z,9.23
2018-05-23T09:48:16.869Z,8.57
2018-05-23T09:50:45.932Z,8.80
2018-05-23T09:53:14.161Z,9.30
2018-05-23T09:55:42.416Z,8.70
2018-05-23T09:58:11.432Z,9.20
2018-05-23T10:00:39.748Z,7.60
2018-05-23T10:03:08.173Z,8.60
2018-05-23T10:05:36.393Z,7.27
2018-05-23T10:08:04.671Z,8.20
2018-05-23T10:10:32.963Z,7.77
2018-05-23T10:13:01.227Z,8.47
2018-05-23T10:15:29.559Z,7.40
2018-05-23T10:17:57.820Z,7.83
2018-05-23T10:20:26.121Z,8.10
2018-05-23T10:22:54.474Z,8.40
2018-05-23T10:25:22.906Z,7.37
2018-05-23T10:27:52.666Z,7.00
2018-05-23T10:30:21.063Z,7.63
2018-05-23T10:32:49.403Z,7.63
2018-05-23T10:35:17.680Z,7.77
2018-05-23T10:37:46.708Z,7.17
2018-05-23T10:40:14.998Z,7.50
2018-05-23T10:42:43.280Z,7.93
2018-05-23T10:45:11.562Z,7.10
2018-05-23T10:47:39.971Z,7.50
2018-05-23T10:50:08.200Z,8.17
2018-05-23T10:52:36.469Z,7.43
2018-05-23T10:55:04.777Z,7.40
2018-05-23T10:57:33.130Z,6.60
2018-05-23T11:00:02.169Z,7.50
2018-05-23T11:02:30.937Z,7.33
2018-05-23T11:04:59.244Z,6.70
2018-05-23T11:07:28.761Z,7.30
2018-05-23T11:09:57.008Z,8.00
2018-05-23T11:12:25.269Z,7.33
2018-05-23T11:14:54.334Z,6.80
2018-05-23T11:17:22.924Z,7.10
2018-05-23T11:19:51.235Z,7.17
2018-05-23T11:22:20.262Z,7.30
2018-05-23T11:24:48.570Z,6.83
2018-05-23T11:27:16.826Z,7.20
2018-05-23T11:29:45.102Z,6.90
2018-05-23T11:32:13.353Z,8.00
2018-05-23T11:34:42.394Z,6.97
2018-05-23T11:37:10.759Z,7.63
2018-05-23T11:39:39.821Z,7.10
2018-05-23T11:42:08.238Z,7.07
2018-05-23T11:44:36.412Z,6.50
2018-05-23T11:47:05.435Z,7.43
2018-05-23T11:49:33.674Z,7.30
2018-05-23T11:52:02.717Z,7.40
2018-05-23T11:54:31.013Z,7.63
2018-05-23T11:56:59.217Z,6.90
2018-05-23T11:59:27.465Z,7.13
2018-05-23T12:01:55.808Z,7.77
2018-05-23T12:04:23.968Z,7.93
2018-05-23T12:06:52.988Z,7.50
2018-05-23T12:09:21.289Z,8.00
2018-05-23T12:11:49.536Z,8.20
2018-05-23T12:14:18.686Z,8.10
2018-05-23T12:16:47.077Z,8.30
2018-05-23T12:19:15.595Z,7.27
2018-05-23T12:21:44.222Z,7.87
2018-05-23T12:24:12.718Z,7.27
2018-05-23T12:26:41.142Z,7.20
2018-05-23T12:29:11.164Z,7.47
2018-05-23T12:34:14.507Z,7.90
2018-05-23T12:36:43.240Z,7.33
2018-05-23T12:39:11.763Z,7.13
2018-05-23T12:41:40.135Z,7.63
2018-05-23T12:44:08.409Z,7.30
2018-05-23T12:46:36.680Z,7.93
2018-05-23T12:49:04.939Z,7.33
2018-05-23T12:51:33.248Z,7.50
2018-05-23T12:54:01.490Z,7.13
2018-05-23T12:56:29.770Z,7.23
2018-05-23T12:58:58.099Z,7.23
2018-05-23T13:01:26.487Z,7.50
2018-05-23T13:03:54.785Z,8.00
2018-05-23T13:06:23.069Z,7.20
2018-05-23T13:08:51.400Z,7.17
2018-05-23T13:11:19.646Z,7.50
2018-05-23T13:13:47.927Z,7.13
2018-05-23T13:16:16.206Z,7.17
2018-05-23T13:18:44.797Z,8.00
2018-05-23T13:21:13.282Z,7.53
2018-05-23T13:23:41.829Z,6.70
2018-05-23T13:26:10.246Z,8.00
2018-05-23T13:28:38.791Z,7.30
2018-05-23T13:31:07.253Z,7.60
2018-05-23T13:33:35.808Z,6.77
2018-05-23T13:36:05.122Z,7.80
2018-05-23T13:38:33.801Z,8.17
2018-05-23T13:41:02.883Z,9.20
2018-05-23T13:43:31.157Z,8.20
2018-05-23T13:45:59.403Z,8.27
2018-05-23T13:48:27.664Z,8.30
2018-05-23T13:50:56.686Z,7.27
2018-05-23T13:53:24.984Z,7.40
2018-05-23T13:58:20.987Z,7.65
2018-05-23T14:00:50.033Z,7.80
2018-05-23T14:03:18.313Z,7.80
2018-05-23T14:05:46.572Z,7.03
2018-05-23T14:08:14.875Z,7.43
2018-05-23T14:13:10.862Z,9.25
2018-05-23T14:15:39.109Z,8.37
2018-05-23T14:18:07.811Z,8.00
2018-05-23T14:20:36.322Z,7.60
2018-05-23T14:23:05.006Z,8.53
2018-05-23T14:25:33.614Z,8.20
2018-05-23T14:28:03.205Z,8.73
2018-05-23T14:30:31.949Z,8.60
2018-05-23T14:33:02.128Z,7.93
2018-05-23T14:35:30.559Z,8.40
2018-05-23T14:42:54.270Z,6.30
2018-05-23T14:45:22.512Z,6.60
2018-05-23T14:47:51.060Z,6.30
2018-05-23T14:52:47.111Z,6.90
2018-05-23T14:55:15.348Z,6.63
2018-05-23T14:57:44.366Z,6.57
2018-05-23T15:00:12.609Z,6.05
2018-05-23T15:02:41.689Z,6.00
2018-05-23T15:05:10.738Z,6.50
2018-05-23T15:07:38.995Z,6.60
2018-05-23T15:10:08.020Z,6.40
2018-05-23T15:12:36.278Z,7.50
2018-05-23T15:20:00.898Z,7.27
2018-05-23T15:22:29.736Z,6.93
2018-05-23T15:24:57.993Z,7.53
2018-05-23T15:27:26.309Z,7.33
2018-05-23T15:29:55.605Z,7.17
2018-05-23T15:32:23.871Z,7.17
2018-05-23T15:34:52.130Z,8.13
2018-05-23T15:37:21.184Z,8.20
2018-05-23T15:39:49.422Z,8.10
2018-05-23T15:42:18.450Z,8.07
2018-05-23T15:44:46.688Z,8.50
2018-05-23T15:47:15.732Z,8.60
2018-05-23T15:49:44.020Z,8.70
2018-05-23T15:52:12.304Z,8.73
2018-05-23T15:54:40.589Z,9.17
2018-05-23T15:57:08.995Z,9.73
2018-05-23T15:59:37.299Z,8.87
2018-05-23T16:02:05.581Z,8.90
2018-05-23T16:04:34.612Z,9.67
2018-05-23T16:07:02.867Z,8.60
2018-05-23T16:09:31.882Z,8.97
2018-05-23T16:12:00.189Z,8.63
2018-05-23T16:14:28.502Z,9.33
2018-05-23T16:16:56.744Z,9.47
2018-05-23T16:19:25.018Z,8.60
2018-05-23T16:21:53.308Z,10.97
2018-05-23T16:24:21.590Z,10.33
2018-05-23T16:26:49.908Z,9.33
2018-05-23T16:29:18.865Z,8.90
2018-05-23T16:31:47.100Z,9.30
2018-05-23T16:36:43.927Z,9.50
2018-05-23T16:39:12.202Z,9.63
2018-05-23T16:41:40.454Z,8.60
2018-05-23T16:44:08.709Z,8.20
2018-05-23T16:46:37.712Z,8.83
2018-05-23T16:49:06.848Z,11.20
2018-05-23T16:51:35.160Z,11.20
2018-05-23T16:54:03.417Z,11.10
2018-05-23T17:08:50.633Z,10.40
2018-05-23T17:13:46.617Z,10.65
2018-05-23T17:16:14.994Z,11.37
2018-05-23T17:21:11.730Z,11.27
2018-05-23T17:23:39.981Z,12.00
2018-05-23T17:26:08.252Z,10.57
2018-05-23T17:28:36.599Z,11.70
2018-05-23T17:31:04.860Z,10.55
2018-05-23T17:33:33.145Z,10.90
2018-05-23T17:40:57.184Z,10.40
2018-05-23T17:55:44.991Z,10.70
2018-05-23T18:00:41.147Z,10.70
2018-05-23T18:32:44.843Z,11.20
2018-05-23T18:37:41.580Z,10.87
2018-05-23T18:42:37.624Z,9.57
2018-05-23T18:50:01.426Z,9.90
2018-05-23T18:54:58.136Z,10.73
2018-05-23T18:57:26.408Z,10.37
2018-05-23T18:59:54.663Z,9.97
2018-05-23T19:04:50.655Z,11.23
2018-05-23T19:07:18.909Z,10.97
2018-05-23T19:09:47.189Z,10.23
2018-05-23T19:12:15.450Z,9.60
2018-05-23T19:14:43.857Z,10.40
2018-05-23T19:17:12.258Z,10.40
2018-05-23T19:19:40.645Z,10.13
2018-05-23T19:22:08.912Z,10.40
2018-05-23T19:24:37.168Z,8.73
2018-05-23T19:27:06.376Z,9.10
2018-05-23T19:29:34.688Z,9.10
2018-05-23T19:32:02.944Z,9.37
2018-05-23T19:34:31.245Z,8.20
2018-05-23T19:36:59.498Z,8.77
2018-05-23T19:39:27.740Z,9.13
2018-05-23T19:41:56.789Z,9.03
2018-05-23T19:44:25.344Z,8.63
2018-05-23T19:46:53.729Z,10.03
2018-05-23T19:49:21.895Z,9.13
2018-05-23T19:51:50.932Z,9.23
2018-05-23T19:54:19.184Z,9.30
2018-05-23T19:56:48.263Z,9.10
2018-05-23T20:01:45.073Z,9.20
2018-05-23T20:09:08.838Z,10.50
2018-05-23T20:11:37.110Z,8.43
2018-05-23T20:14:05.485Z,8.30
2018-05-23T20:16:33.634Z,8.97
2018-05-23T20:19:01.897Z,8.83
2018-05-23T20:21:30.913Z,8.47
2018-05-23T20:23:59.175Z,9.40
2018-05-23T20:26:28.312Z,8.43
2018-05-23T20:28:56.617Z,9.33
2018-05-23T20:31:24.894Z,8.37
2018-05-23T20:33:53.177Z,8.17
2018-05-23T20:36:21.432Z,8.80
2018-05-23T20:38:49.743Z,8.90
2018-05-23T20:41:17.981Z,9.10
2018-05-23T20:43:46.256Z,8.43
2018-05-23T20:46:15.285Z,8.40
2018-05-23T20:48:43.555Z,9.50
2018-05-23T20:51:11.849Z,9.07
2018-05-23T20:53:40.116Z,9.30
2018-05-23T20:56:08.357Z,9.13
2018-05-23T20:58:37.418Z,9.53
2018-05-23T21:01:05.685Z,10.10
2018-05-23T21:03:34.081Z,8.77
2018-05-23T21:06:02.329Z,8.63
2018-05-23T21:08:31.380Z,9.60
2018-05-23T21:10:59.631Z,9.20
2018-05-23T21:13:27.922Z,9.60
2018-05-23T21:15:56.748Z,9.83
2018-05-23T21:18:25.335Z,10.07
2018-05-23T21:20:53.716Z,10.45
2018-05-23T21:23:22.300Z,10.63
2018-05-23T21:25:50.789Z,10.03
2018-05-23T21:28:19.024Z,10.60
2018-05-23T21:30:47.320Z,10.57
2018-05-23T21:33:15.606Z,9.83
2018-05-23T21:35:43.890Z,10.27
2018-05-23T21:38:12.172Z,10.60
2018-05-23T21:52:59.904Z,10.37
2018-05-23T21:55:28.183Z,10.70
2018-05-23T21:57:56.421Z,11.10
2018-05-23T22:00:25.460Z,11.30
2018-05-23T22:02:53.741Z,11.33
2018-05-23T22:05:22.028Z,11.97
2018-05-23T22:07:50.308Z,11.53
2018-05-23T22:10:18.728Z,11.40
2018-05-23T22:12:46.982Z,11.80
2018-05-23T22:15:15.261Z,12.60
2018-05-23T22:17:43.538Z,11.33
2018-05-23T22:20:11.805Z,11.80
2018-05-23T22:22:40.076Z,13.17
2018-05-23T22:25:08.382Z,12.10
2018-05-23T22:27:36.636Z,12.20
2018-05-23T22:30:04.942Z,11.40
2018-05-23T22:32:33.196Z,12.00
2018-05-23T22:35:01.821Z,11.47
2018-05-23T22:37:30.072Z,11.87
2018-05-23T22:39:58.345Z,11.80
2018-05-23T22:42:27.361Z,12.20
2018-05-23T22:44:55.705Z,11.00
2018-05-23T22:47:23.893Z,12.10
2018-05-23T22:49:53.044Z,11.17
2018-05-23T22:52:21.291Z,11.50
2018-05-23T22:54:49.605Z,11.37
2018-05-23T22:57:17.890Z,11.10
2018-05-23T22:59:46.164Z,10.70
2018-05-23T23:02:14.419Z,10.70
2018-05-23T23:04:42.775Z,11.83
2018-05-23T23:07:11.148Z,11.10
2018-05-23T23:09:39.401Z,11.67
2018-05-23T23:12:07.705Z,11.23
2018-05-23T23:14:36.061Z,11.40
2018-05-23T23:17:04.316Z,11.83
2018-05-23T23:19:32.625Z,13.07
2018-05-23T23:22:00.880Z,12.40
2018-05-23T23:24:29.192Z,11.10
2018-05-23T23:26:57.591Z,12.90
2018-05-23T23:39:16.822Z,13.50
2018-05-23T23:41:45.078Z,12.93
2018-05-23T23:51:36.635Z,12.30
